DLH1FL BIKF-EDDF
Flight info
| Callsign | DLH1FL |
|---|---|
| Flight time | N/A |
| Altitude | 35000 |
| Route | OSKUM3A OSKUM DCT RATSU/N0441F350 DCT DEVBI DCT LONAM DCT SOGPO DCT DIXAT DIXAT1A |
| Aircraft | A321/M-SDE3FGHIRWY/LB1 |
Departure
| Time | 2026-05-04 13:34 |
|---|---|
| Airport | Keflavik International Airport (BIKF) |
Arrival
| Time | N/A |
|---|---|
| Airport | Frankfurt Main Airport (EDDF) |
| Time | Latitude | Longitude | Altitude | Speed | Heading |
|---|---|---|---|---|---|
| 2026-05-04 12:50 | 63.99273 | -22.62572 | 143 ft | 0 kts | 51° |
| 2026-05-04 13:18 | 63.99270 | -22.62580 | 142 ft | 3 kts | 51° |
| 2026-05-04 13:18 | 63.99257 | -22.62616 | 142 ft | 3 kts | 51° |
| 2026-05-04 13:18 | 63.99246 | -22.62645 | 142 ft | 3 kts | 56° |
| 2026-05-04 13:19 | 63.99240 | -22.62677 | 144 ft | 3 kts | 111° |
| 2026-05-04 13:19 | 63.99250 | -22.62708 | 144 ft | 3 kts | 140° |
| 2026-05-04 13:19 | 63.99266 | -22.62733 | 142 ft | 3 kts | 159° |
| 2026-05-04 13:19 | 63.99286 | -22.62744 | 142 ft | 3 kts | 177° |
| 2026-05-04 13:20 | 63.99293 | -22.62745 | 142 ft | 0 kts | 180° |
| 2026-05-04 13:23 | 63.99290 | -22.62745 | 142 ft | 1 kts | 180° |
| 2026-05-04 13:23 | 63.99272 | -22.62740 | 142 ft | 4 kts | 165° |
| 2026-05-04 13:23 | 63.99242 | -22.62692 | 142 ft | 7 kts | 143° |
| 2026-05-04 13:24 | 63.99189 | -22.62672 | 142 ft | 9 kts | 169° |
| 2026-05-04 13:24 | 63.99172 | -22.62553 | 142 ft | 9 kts | 90° |
| 2026-05-04 13:24 | 63.99173 | -22.62386 | 142 ft | 12 kts | 89° |
| 2026-05-04 13:25 | 63.99173 | -22.61949 | 142 ft | 16 kts | 90° |
| 2026-05-04 13:25 | 63.99173 | -22.61706 | 147 ft | 15 kts | 90° |
| 2026-05-04 13:25 | 63.99173 | -22.61491 | 152 ft | 13 kts | 89° |
| 2026-05-04 13:25 | 63.99173 | -22.61302 | 156 ft | 11 kts | 90° |
| 2026-05-04 13:26 | 63.99156 | -22.61150 | 160 ft | 9 kts | 138° |
| 2026-05-04 13:26 | 63.99093 | -22.61124 | 162 ft | 10 kts | 180° |
| 2026-05-04 13:26 | 63.99023 | -22.61124 | 164 ft | 11 kts | 180° |
| 2026-05-04 13:26 | 63.98938 | -22.61125 | 162 ft | 14 kts | 180° |
| 2026-05-04 13:27 | 63.98832 | -22.61125 | 163 ft | 16 kts | 180° |
| 2026-05-04 13:27 | 63.98709 | -22.61125 | 162 ft | 19 kts | 180° |
| 2026-05-04 13:27 | 63.98572 | -22.61124 | 164 ft | 20 kts | 180° |
| 2026-05-04 13:27 | 63.98430 | -22.61125 | 160 ft | 22 kts | 180° |
| 2026-05-04 13:28 | 63.98282 | -22.61127 | 161 ft | 18 kts | 180° |
| 2026-05-04 13:28 | 63.98179 | -22.61121 | 159 ft | 16 kts | 168° |
| 2026-05-04 13:28 | 63.98129 | -22.60962 | 166 ft | 9 kts | 132° |
| 2026-05-04 13:28 | 63.98060 | -22.60940 | 168 ft | 11 kts | 180° |
| 2026-05-04 13:29 | 63.97973 | -22.60941 | 169 ft | 14 kts | 180° |
| 2026-05-04 13:29 | 63.97866 | -22.60941 | 169 ft | 17 kts | 180° |
| 2026-05-04 13:29 | 63.97739 | -22.60940 | 169 ft | 20 kts | 180° |
| 2026-05-04 13:29 | 63.97588 | -22.60940 | 167 ft | 24 kts | 180° |
| 2026-05-04 13:30 | 63.97411 | -22.60941 | 164 ft | 28 kts | 180° |
| 2026-05-04 13:30 | 63.97205 | -22.60941 | 158 ft | 31 kts | 180° |
| 2026-05-04 13:30 | 63.96976 | -22.60939 | 150 ft | 34 kts | 180° |
| 2026-05-04 13:30 | 63.96746 | -22.60940 | 141 ft | 29 kts | 180° |
| 2026-05-04 13:31 | 63.96561 | -22.60941 | 135 ft | 22 kts | 180° |
| 2026-05-04 13:31 | 63.96463 | -22.60877 | 136 ft | 14 kts | 113° |
| 2026-05-04 13:31 | 63.96459 | -22.60689 | 142 ft | 9 kts | 89° |
| 2026-05-04 13:31 | 63.96460 | -22.60605 | 143 ft | 7 kts | 89° |
| 2026-05-04 13:32 | 63.96486 | -22.60546 | 145 ft | 4 kts | 8° |
| 2026-05-04 13:32 | 63.96510 | -22.60545 | 146 ft | 1 kts | 1° |
| 2026-05-04 13:32 | 63.96512 | -22.60545 | 146 ft | 0 kts | 1° |
| 2026-05-04 13:33 | 63.96518 | -22.60545 | 146 ft | 6 kts | 1° |
| 2026-05-04 13:33 | 63.96798 | -22.60542 | 156 ft | 74 kts | 360° |
| 2026-05-04 13:33 | 63.97516 | -22.60537 | 173 ft | 132 kts | 0° |
| 2026-05-04 13:33 | 63.98574 | -22.60546 | 526 ft | 156 kts | 1° |
| 2026-05-04 13:34 | 63.99643 | -22.60555 | 1334 ft | 154 kts | 0° |
| 2026-05-04 13:34 | 64.00775 | -22.60572 | 1735 ft | 171 kts | 0° |
| 2026-05-04 13:34 | 64.02033 | -22.60584 | 2018 ft | 191 kts | 0° |
| 2026-05-04 13:34 | 64.03378 | -22.60580 | 2629 ft | 193 kts | 1° |
| 2026-05-04 13:35 | 64.04741 | -22.60559 | 3180 ft | 199 kts | 2° |
| 2026-05-04 13:35 | 64.06752 | -22.56590 | 4034 ft | 231 kts | 76° |
| 2026-05-04 13:35 | 64.06850 | -22.52832 | 4480 ft | 242 kts | 88° |
| 2026-05-04 13:36 | 64.06738 | -22.48861 | 4891 ft | 258 kts | 92° |
| 2026-05-04 13:36 | 64.06578 | -22.44724 | 5549 ft | 264 kts | 94° |
| 2026-05-04 13:36 | 64.06073 | -22.40606 | 6214 ft | 274 kts | 112° |
| 2026-05-04 13:36 | 64.05121 | -22.36777 | 6897 ft | 280 kts | 120° |
| 2026-05-04 13:37 | 64.04113 | -22.32931 | 7548 ft | 285 kts | 118° |
| 2026-05-04 13:37 | 64.03120 | -22.28960 | 8179 ft | 290 kts | 117° |
| 2026-05-04 13:37 | 64.02123 | -22.24902 | 8816 ft | 296 kts | 117° |
| 2026-05-04 13:37 | 64.01109 | -22.20765 | 9435 ft | 302 kts | 117° |
| 2026-05-04 13:38 | 64.00071 | -22.16559 | 10086 ft | 307 kts | 117° |
| 2026-05-04 13:38 | 63.99003 | -22.12259 | 10496 ft | 320 kts | 118° |
| 2026-05-04 13:38 | 63.97878 | -22.07748 | 10621 ft | 342 kts | 118° |
| 2026-05-04 13:38 | 63.96666 | -22.02910 | 10766 ft | 361 kts | 118° |
| 2026-05-04 13:39 | 63.95396 | -21.97870 | 11126 ft | 371 kts | 118° |
| 2026-05-04 13:39 | 63.94093 | -21.92726 | 11556 ft | 380 kts | 119° |
| 2026-05-04 13:39 | 63.92757 | -21.87473 | 12010 ft | 387 kts | 119° |
| 2026-05-04 13:39 | 63.91398 | -21.82136 | 12505 ft | 393 kts | 119° |
| 2026-05-04 13:40 | 63.90021 | -21.76728 | 12988 ft | 398 kts | 119° |
| 2026-05-04 13:40 | 63.88619 | -21.71235 | 13474 ft | 404 kts | 120° |
| 2026-05-04 13:40 | 63.87198 | -21.65689 | 13942 ft | 409 kts | 120° |
| 2026-05-04 13:40 | 63.85757 | -21.60073 | 14388 ft | 414 kts | 120° |
| 2026-05-04 13:41 | 63.84298 | -21.54387 | 14852 ft | 418 kts | 120° |
| 2026-05-04 13:41 | 63.82828 | -21.48664 | 15302 ft | 422 kts | 120° |
| 2026-05-04 13:41 | 63.81340 | -21.42890 | 15773 ft | 427 kts | 120° |
| 2026-05-04 13:42 | 63.78324 | -21.31257 | 16655 ft | 435 kts | 120° |
| 2026-05-04 13:42 | 63.76975 | -21.25112 | 17075 ft | 438 kts | 110° |
| 2026-05-04 13:42 | 63.76059 | -21.18521 | 17501 ft | 440 kts | 99° |
| 2026-05-04 13:42 | 63.75567 | -21.11704 | 17924 ft | 441 kts | 94° |
| 2026-05-04 13:43 | 63.75150 | -21.04812 | 18340 ft | 444 kts | 94° |
| 2026-05-04 13:43 | 63.74719 | -20.97864 | 18755 ft | 447 kts | 95° |
| 2026-05-04 13:43 | 63.74276 | -20.90890 | 19134 ft | 450 kts | 95° |
| 2026-05-04 13:43 | 63.73823 | -20.83879 | 19516 ft | 452 kts | 95° |
| 2026-05-04 13:44 | 63.73366 | -20.76831 | 19887 ft | 455 kts | 95° |
| 2026-05-04 13:44 | 63.72904 | -20.69729 | 20267 ft | 457 kts | 95° |
| 2026-05-04 13:44 | 63.72443 | -20.62702 | 20636 ft | 460 kts | 95° |
| 2026-05-04 13:44 | 63.71970 | -20.55542 | 21010 ft | 463 kts | 95° |
| 2026-05-04 13:45 | 63.71459 | -20.48344 | 21371 ft | 468 kts | 99° |
| 2026-05-04 13:45 | 63.70557 | -20.41242 | 21679 ft | 474 kts | 109° |
| 2026-05-04 13:45 | 63.69225 | -20.34389 | 22018 ft | 478 kts | 114° |
| 2026-05-04 13:45 | 63.67826 | -20.27573 | 22363 ft | 480 kts | 114° |
| 2026-05-04 13:46 | 63.66423 | -20.20720 | 22713 ft | 483 kts | 114° |
| 2026-05-04 13:46 | 63.65011 | -20.13814 | 23054 ft | 486 kts | 114° |
| 2026-05-04 13:46 | 63.63593 | -20.06892 | 23388 ft | 488 kts | 114° |
| 2026-05-04 13:46 | 63.62161 | -19.99924 | 23732 ft | 491 kts | 114° |
| 2026-05-04 13:47 | 63.60722 | -19.92943 | 24048 ft | 493 kts | 114° |
| 2026-05-04 13:47 | 63.59272 | -19.85941 | 24337 ft | 494 kts | 114° |
| 2026-05-04 13:47 | 63.57835 | -19.79038 | 24681 ft | 495 kts | 115° |
| 2026-05-04 13:47 | 63.56368 | -19.72015 | 25001 ft | 497 kts | 115° |
| 2026-05-04 13:48 | 63.54889 | -19.64975 | 25301 ft | 499 kts | 115° |
| 2026-05-04 13:48 | 63.53400 | -19.57918 | 25582 ft | 501 kts | 115° |
| 2026-05-04 13:48 | 63.51905 | -19.50850 | 25878 ft | 504 kts | 115° |
| 2026-05-04 13:48 | 63.50398 | -19.43735 | 26102 ft | 507 kts | 115° |
| 2026-05-04 13:49 | 63.48875 | -19.36573 | 26364 ft | 509 kts | 115° |
| 2026-05-04 13:49 | 63.47348 | -19.29405 | 26645 ft | 511 kts | 115° |
| 2026-05-04 13:49 | 63.45827 | -19.22294 | 26923 ft | 513 kts | 115° |
| 2026-05-04 13:49 | 63.44278 | -19.15093 | 27188 ft | 515 kts | 115° |
| 2026-05-04 13:50 | 63.42719 | -19.07854 | 27455 ft | 517 kts | 115° |
| 2026-05-04 13:50 | 63.41156 | -19.00611 | 27732 ft | 519 kts | 115° |
| 2026-05-04 13:50 | 63.39584 | -18.93351 | 28002 ft | 520 kts | 115° |
| 2026-05-04 13:50 | 63.37999 | -18.86059 | 28262 ft | 522 kts | 116° |
| 2026-05-04 13:51 | 63.36407 | -18.78768 | 28518 ft | 524 kts | 116° |
| 2026-05-04 13:51 | 63.34804 | -18.71462 | 28749 ft | 526 kts | 116° |
| 2026-05-04 13:51 | 63.33189 | -18.64144 | 29017 ft | 527 kts | 116° |
| 2026-05-04 13:51 | 63.31563 | -18.56800 | 29264 ft | 529 kts | 116° |
| 2026-05-04 13:52 | 63.28308 | -18.42145 | 29649 ft | 535 kts | 116° |
| 2026-05-04 13:52 | 63.26652 | -18.34718 | 29849 ft | 537 kts | 116° |
| 2026-05-04 13:52 | 63.24988 | -18.27286 | 30053 ft | 538 kts | 116° |
| 2026-05-04 13:53 | 63.23314 | -18.19825 | 30248 ft | 540 kts | 116° |
| 2026-05-04 13:53 | 63.21637 | -18.12361 | 30478 ft | 539 kts | 116° |
| 2026-05-04 13:53 | 63.19962 | -18.04937 | 30693 ft | 537 kts | 116° |
| 2026-05-04 13:54 | 63.16618 | -17.90217 | 31263 ft | 533 kts | 117° |
| 2026-05-04 13:54 | 63.14943 | -17.82885 | 31516 ft | 532 kts | 117° |
| 2026-05-04 13:54 | 63.11607 | -17.68404 | 31978 ft | 531 kts | 117° |
| 2026-05-04 13:55 | 63.09926 | -17.61134 | 32218 ft | 530 kts | 117° |
| 2026-05-04 13:55 | 63.06563 | -17.46618 | 32602 ft | 532 kts | 117° |
| 2026-05-04 13:55 | 63.04870 | -17.39349 | 32792 ft | 532 kts | 117° |
| 2026-05-04 13:56 | 63.03174 | -17.32111 | 32997 ft | 531 kts | 117° |
| 2026-05-04 13:56 | 63.01471 | -17.24875 | 33206 ft | 531 kts | 118° |
| 2026-05-04 13:56 | 62.98095 | -17.10608 | 33699 ft | 526 kts | 118° |
| 2026-05-04 13:57 | 62.96405 | -17.03491 | 33969 ft | 524 kts | 118° |
| 2026-05-04 13:57 | 62.94717 | -16.96404 | 34185 ft | 523 kts | 118° |
| 2026-05-04 13:58 | 62.89657 | -16.75235 | 34689 ft | 521 kts | 118° |
| 2026-05-04 13:58 | 62.86281 | -16.61194 | 35046 ft | 519 kts | 118° |
| 2026-05-04 13:58 | 62.84584 | -16.54182 | 35135 ft | 520 kts | 118° |
| 2026-05-04 13:59 | 62.81173 | -16.40214 | 35149 ft | 520 kts | 119° |
| 2026-05-04 14:00 | 62.76071 | -16.19453 | 35149 ft | 516 kts | 119° |
| 2026-05-04 14:00 | 62.70957 | -15.98825 | 35152 ft | 515 kts | 119° |
| 2026-05-04 14:01 | 62.67528 | -15.85116 | 35148 ft | 515 kts | 120° |
| 2026-05-04 14:02 | 62.62366 | -15.64603 | 35152 ft | 515 kts | 120° |
| 2026-05-04 14:02 | 62.58926 | -15.51050 | 35148 ft | 515 kts | 120° |
| 2026-05-04 14:03 | 62.55446 | -15.37451 | 35150 ft | 515 kts | 120° |
| 2026-05-04 14:03 | 62.51968 | -15.23908 | 35155 ft | 514 kts | 120° |
| 2026-05-04 14:04 | 62.46754 | -15.03732 | 35155 ft | 513 kts | 120° |
| 2026-05-04 14:04 | 62.43243 | -14.90285 | 35144 ft | 513 kts | 120° |
| 2026-05-04 14:05 | 62.37946 | -14.70176 | 35133 ft | 515 kts | 121° |
| 2026-05-04 14:06 | 62.34392 | -14.56765 | 35096 ft | 515 kts | 121° |
| 2026-05-04 14:06 | 62.30861 | -14.43481 | 35120 ft | 515 kts | 121° |
| 2026-05-04 14:07 | 62.27288 | -14.30129 | 35140 ft | 515 kts | 121° |
| 2026-05-04 14:07 | 62.23717 | -14.16897 | 35129 ft | 514 kts | 121° |
| 2026-05-04 14:08 | 62.20120 | -14.03616 | 35133 ft | 514 kts | 121° |
| 2026-05-04 14:08 | 62.16512 | -13.90372 | 35127 ft | 514 kts | 122° |
| 2026-05-04 14:09 | 62.11087 | -13.70627 | 35089 ft | 515 kts | 122° |
| 2026-05-04 14:10 | 62.05613 | -13.50916 | 35122 ft | 515 kts | 122° |
| 2026-05-04 14:10 | 62.01959 | -13.37787 | 35121 ft | 514 kts | 122° |
| 2026-05-04 14:11 | 61.98287 | -13.24720 | 35119 ft | 514 kts | 122° |
| 2026-05-04 14:11 | 61.92778 | -13.05254 | 35118 ft | 514 kts | 122° |
| 2026-05-04 14:12 | 61.89081 | -12.92246 | 35106 ft | 514 kts | 123° |
| 2026-05-04 14:13 | 61.83520 | -12.72893 | 35109 ft | 514 kts | 123° |
| 2026-05-04 14:13 | 61.79789 | -12.59990 | 35102 ft | 513 kts | 123° |
| 2026-05-04 14:14 | 61.76052 | -12.47132 | 35105 ft | 513 kts | 123° |
| 2026-05-04 14:14 | 61.70423 | -12.27878 | 35101 ft | 513 kts | 123° |
| 2026-05-04 14:15 | 61.62908 | -12.02433 | 35097 ft | 513 kts | 123° |
| 2026-05-04 14:16 | 61.57242 | -11.83449 | 35092 ft | 512 kts | 124° |
| 2026-05-04 14:17 | 61.51519 | -11.64440 | 35083 ft | 512 kts | 124° |
| 2026-05-04 14:18 | 61.45813 | -11.45623 | 35086 ft | 512 kts | 124° |
| 2026-05-04 14:19 | 61.38125 | -11.20574 | 35097 ft | 511 kts | 124° |
| 2026-05-04 14:19 | 61.34302 | -11.08186 | 35097 ft | 511 kts | 125° |
| 2026-05-04 14:20 | 61.30437 | -10.95740 | 35091 ft | 510 kts | 125° |
| 2026-05-04 14:20 | 61.26579 | -10.83347 | 35084 ft | 510 kts | 125° |
| 2026-05-04 14:21 | 61.20761 | -10.64833 | 35079 ft | 510 kts | 125° |
| 2026-05-04 14:21 | 61.16892 | -10.52597 | 35083 ft | 510 kts | 125° |
| 2026-05-04 14:22 | 61.12967 | -10.40291 | 35082 ft | 511 kts | 126° |
| 2026-05-04 14:22 | 61.09704 | -10.30104 | 35074 ft | 511 kts | 126° |
| 2026-05-04 14:23 | 61.03800 | -10.11733 | 35075 ft | 511 kts | 126° |
| 2026-05-04 14:24 | 60.99952 | -9.99485 | 35069 ft | 513 kts | 120° |
| 2026-05-04 14:24 | 60.96888 | -9.86159 | 35021 ft | 514 kts | 116° |
| 2026-05-04 14:25 | 60.93885 | -9.72929 | 35064 ft | 513 kts | 116° |
| 2026-05-04 14:25 | 60.89326 | -9.53042 | 35095 ft | 512 kts | 116° |
| 2026-05-04 14:26 | 60.86275 | -9.39802 | 35085 ft | 512 kts | 117° |
| 2026-05-04 14:26 | 60.83212 | -9.26603 | 35083 ft | 512 kts | 117° |
| 2026-05-04 14:27 | 60.80149 | -9.13507 | 35080 ft | 512 kts | 117° |
| 2026-05-04 14:27 | 60.77044 | -9.00337 | 35079 ft | 512 kts | 117° |
| 2026-05-04 14:28 | 60.73938 | -8.87198 | 35067 ft | 512 kts | 117° |
| 2026-05-04 14:28 | 60.70504 | -8.74582 | 35075 ft | 508 kts | 130° |
| 2026-05-04 14:29 | 60.61561 | -8.52453 | 35077 ft | 506 kts | 133° |
| 2026-05-04 14:30 | 60.57059 | -8.41410 | 35078 ft | 506 kts | 133° |
| 2026-05-04 14:31 | 60.50283 | -8.24924 | 35077 ft | 506 kts | 133° |
| 2026-05-04 14:32 | 60.41250 | -8.03142 | 35088 ft | 505 kts | 134° |
| 2026-05-04 14:32 | 60.36710 | -7.92286 | 35080 ft | 505 kts | 134° |
| 2026-05-04 14:33 | 60.32195 | -7.81511 | 35077 ft | 505 kts | 134° |
| 2026-05-04 14:33 | 60.27647 | -7.70709 | 35078 ft | 505 kts | 134° |
| 2026-05-04 14:34 | 60.23082 | -7.59935 | 35039 ft | 504 kts | 134° |
| 2026-05-04 14:34 | 60.18539 | -7.49285 | 35079 ft | 503 kts | 134° |
| 2026-05-04 14:35 | 60.13980 | -7.38631 | 35084 ft | 502 kts | 134° |
| 2026-05-04 14:35 | 60.09455 | -7.28084 | 35083 ft | 501 kts | 134° |
| 2026-05-04 14:36 | 60.04899 | -7.17523 | 35077 ft | 501 kts | 134° |
| 2026-05-04 14:36 | 60.00331 | -7.06993 | 35076 ft | 500 kts | 134° |
| 2026-05-04 14:37 | 59.95764 | -6.96514 | 35052 ft | 499 kts | 134° |
| 2026-05-04 14:37 | 59.91197 | -6.86069 | 35073 ft | 499 kts | 134° |
| 2026-05-04 14:38 | 59.86664 | -6.75728 | 35075 ft | 498 kts | 134° |
| 2026-05-04 14:38 | 59.82083 | -6.65345 | 35074 ft | 497 kts | 135° |
| 2026-05-04 14:39 | 59.77528 | -6.55112 | 35089 ft | 497 kts | 135° |
| 2026-05-04 14:39 | 59.72940 | -6.44813 | 35075 ft | 497 kts | 135° |
| 2026-05-04 14:40 | 59.66089 | -6.29506 | 35064 ft | 496 kts | 135° |
| 2026-05-04 14:40 | 59.61499 | -6.19326 | 35068 ft | 495 kts | 135° |
| 2026-05-04 14:41 | 59.56906 | -6.09167 | 35061 ft | 494 kts | 135° |
| 2026-05-04 14:42 | 59.47749 | -5.89048 | 35061 ft | 494 kts | 135° |
| 2026-05-04 14:42 | 59.43139 | -5.79030 | 35052 ft | 493 kts | 136° |
| 2026-05-04 14:43 | 59.38539 | -5.69054 | 35053 ft | 492 kts | 135° |
| 2026-05-04 14:43 | 59.33938 | -5.59089 | 35057 ft | 492 kts | 136° |
| 2026-05-04 14:44 | 59.29342 | -5.49163 | 35058 ft | 492 kts | 136° |
| 2026-05-04 14:44 | 59.24732 | -5.39283 | 35051 ft | 492 kts | 136° |
| 2026-05-04 14:45 | 59.20112 | -5.29442 | 35015 ft | 491 kts | 136° |
| 2026-05-04 14:45 | 59.15517 | -5.19689 | 35034 ft | 491 kts | 136° |
| 2026-05-04 14:46 | 59.10894 | -5.09893 | 35057 ft | 490 kts | 136° |
| 2026-05-04 14:46 | 59.06265 | -5.00148 | 35052 ft | 490 kts | 136° |
| 2026-05-04 14:47 | 59.01625 | -4.90422 | 35045 ft | 490 kts | 136° |
| 2026-05-04 14:47 | 58.96981 | -4.80717 | 35045 ft | 490 kts | 136° |
| 2026-05-04 14:48 | 58.92364 | -4.71120 | 35004 ft | 490 kts | 137° |
| 2026-05-04 14:48 | 58.87714 | -4.61493 | 35034 ft | 490 kts | 137° |
| 2026-05-04 14:49 | 58.83060 | -4.51890 | 35036 ft | 489 kts | 137° |
| 2026-05-04 14:49 | 58.78395 | -4.42304 | 35046 ft | 489 kts | 137° |
| 2026-05-04 14:50 | 58.73721 | -4.32746 | 35056 ft | 490 kts | 137° |
| 2026-05-04 14:50 | 58.69038 | -4.23212 | 35046 ft | 489 kts | 137° |
| 2026-05-04 14:51 | 58.64362 | -4.13719 | 35035 ft | 490 kts | 137° |
| 2026-05-04 14:51 | 58.59674 | -4.04234 | 35030 ft | 490 kts | 137° |
| 2026-05-04 14:52 | 58.54992 | -3.94823 | 35039 ft | 490 kts | 137° |